sensor_id;sensor_type;location;lat;lon;timestamp;pressure;altitude;pressure_sealevel;temperature;humidity
55540;BME280;41384;51.418;7.286;2022-07-23T00:01:31;100132.19;;;18.56;95.75
55540;BME280;41384;51.418;7.286;2022-07-23T00:03:56;100121.63;;;18.44;96.07
55540;BME280;41384;51.418;7.286;2022-07-23T00:06:22;100127.00;;;18.72;95.00
55540;BME280;41384;51.418;7.286;2022-07-23T00:08:48;100132.00;;;18.63;96.86
55540;BME280;41384;51.418;7.286;2022-07-23T00:11:13;100127.44;;;18.63;96.38
55540;BME280;41384;51.418;7.286;2022-07-23T00:13:39;100123.63;;;18.54;98.75
55540;BME280;41384;51.418;7.286;2022-07-23T00:16:05;100122.19;;;18.46;99.30
55540;BME280;41384;51.418;7.286;2022-07-23T00:18:30;100113.66;;;18.49;98.41
55540;BME280;41384;51.418;7.286;2022-07-23T00:20:55;100107.94;;;18.35;100.00
55540;BME280;41384;51.418;7.286;2022-07-23T00:23:21;100105.59;;;18.44;98.55
55540;BME280;41384;51.418;7.286;2022-07-23T00:25:46;100101.38;;;18.48;96.17
55540;BME280;41384;51.418;7.286;2022-07-23T00:28:11;100115.66;;;18.59;95.71
55540;BME280;41384;51.418;7.286;2022-07-23T00:30:37;100106.56;;;18.60;95.46
55540;BME280;41384;51.418;7.286;2022-07-23T00:33:05;100100.47;;;18.65;94.40
55540;BME280;41384;51.418;7.286;2022-07-23T00:35:33;100095.41;;;18.69;94.30
55540;BME280;41384;51.418;7.286;2022-07-23T00:38:00;100104.59;;;18.78;94.73
55540;BME280;41384;51.418;7.286;2022-07-23T00:40:27;100107.69;;;18.64;97.21
55540;BME280;41384;51.418;7.286;2022-07-23T00:42:52;100113.16;;;18.52;97.06
55540;BME280;41384;51.418;7.286;2022-07-23T00:45:18;100105.66;;;18.49;98.24
55540;BME280;41384;51.418;7.286;2022-07-23T00:47:44;100098.13;;;18.19;99.10
55540;BME280;41384;51.418;7.286;2022-07-23T00:50:10;100093.91;;;18.23;100.00
55540;BME280;41384;51.418;7.286;2022-07-23T00:52:37;100097.47;;;18.34;100.00
55540;BME280;41384;51.418;7.286;2022-07-23T00:55:03;100093.97;;;18.28;100.00
55540;BME280;41384;51.418;7.286;2022-07-23T00:57:29;100087.19;;;18.20;100.00
55540;BME280;41384;51.418;7.286;2022-07-23T00:59:54;100088.50;;;18.45;100.00
55540;BME280;41384;51.418;7.286;2022-07-23T01:02:20;100080.09;;;18.59;98.17
55540;BME280;41384;51.418;7.286;2022-07-23T01:04:45;100079.84;;;18.33;100.00
55540;BME280;41384;51.418;7.286;2022-07-23T01:07:10;100083.75;;;18.52;99.75
55540;BME280;41384;51.418;7.286;2022-07-23T01:09:36;100082.09;;;18.46;98.24
55540;BME280;41384;51.418;7.286;2022-07-23T01:12:02;100080.38;;;18.35;98.46
55540;BME280;41384;51.418;7.286;2022-07-23T01:14:28;100088.28;;;18.25;100.00
55540;BME280;41384;51.418;7.286;2022-07-23T01:16:53;100092.41;;;18.10;100.00
55540;BME280;41384;51.418;7.286;2022-07-23T01:19:18;100087.19;;;18.20;100.00
55540;BME280;41384;51.418;7.286;2022-07-23T01:21:48;100082.38;;;18.45;100.00
55540;BME280;41384;51.418;7.286;2022-07-23T01:24:14;100080.06;;;18.26;100.00
55540;BME280;41384;51.418;7.286;2022-07-23T01:26:44;100081.00;;;18.15;100.00
55540;BME280;41384;51.418;7.286;2022-07-23T01:29:10;100080.50;;;18.18;100.00
55540;BME280;41384;51.418;7.286;2022-07-23T01:31:36;100086.34;;;18.42;100.00
55540;BME280;41384;51.418;7.286;2022-07-23T01:34:02;100079.75;;;18.50;99.03
55540;BME280;41384;51.418;7.286;2022-07-23T01:36:28;100081.66;;;18.27;100.00
55540;BME280;41384;51.418;7.286;2022-07-23T01:38:53;100094.75;;;18.06;100.00
55540;BME280;41384;51.418;7.286;2022-07-23T01:41:18;100090.28;;;17.90;100.00
55540;BME280;41384;51.418;7.286;2022-07-23T01:43:44;100089.78;;;17.93;100.00
55540;BME280;41384;51.418;7.286;2022-07-23T01:46:09;100082.28;;;18.34;100.00
55540;BME280;41384;51.418;7.286;2022-07-23T01:48:34;100074.59;;;18.16;100.00
55540;BME280;41384;51.418;7.286;2022-07-23T01:51:00;100071.16;;;18.20;100.00
55540;BME280;41384;51.418;7.286;2022-07-23T01:53:25;100080.66;;;18.33;100.00
55540;BME280;41384;51.418;7.286;2022-07-23T01:55:50;100072.03;;;18.26;100.00
55540;BME280;41384;51.418;7.286;2022-07-23T01:58:16;100067.19;;;18.23;100.00
55540;BME280;41384;51.418;7.286;2022-07-23T02:00:41;100068.59;;;18.58;99.37
55540;BME280;41384;51.418;7.286;2022-07-23T02:03:06;100062.84;;;18.44;100.00
55540;BME280;41384;51.418;7.286;2022-07-23T02:05:31;100061.84;;;18.23;100.00
55540;BME280;41384;51.418;7.286;2022-07-23T02:07:58;100065.13;;;17.86;100.00
55540;BME280;41384;51.418;7.286;2022-07-23T02:10:24;100062.34;;;17.98;100.00
55540;BME280;41384;51.418;7.286;2022-07-23T02:12:49;100059.72;;;18.25;100.00
55540;BME280;41384;51.418;7.286;2022-07-23T02:15:15;100058.47;;;18.11;100.00
55540;BME280;41384;51.418;7.286;2022-07-23T02:17:40;100054.69;;;18.06;100.00
55540;BME280;41384;51.418;7.286;2022-07-23T02:20:07;100059.19;;;18.01;100.00
55540;BME280;41384;51.418;7.286;2022-07-23T02:22:33;100065.16;;;18.08;100.00
55540;BME280;41384;51.418;7.286;2022-07-23T02:24:58;100062.34;;;17.98;100.00
55540;BME280;41384;51.418;7.286;2022-07-23T02:27:23;100065.38;;;17.84;100.00
55540;BME280;41384;51.418;7.286;2022-07-23T02:29:49;100068.31;;;17.43;100.00
55540;BME280;41384;51.418;7.286;2022-07-23T02:32:14;100072.44;;;17.73;100.00
55540;BME280;41384;51.418;7.286;2022-07-23T02:34:40;100067.00;;;18.07;100.00
55540;BME280;41384;51.418;7.286;2022-07-23T02:37:05;100063.78;;;17.83;100.00
55540;BME280;41384;51.418;7.286;2022-07-23T02:39:30;100057.13;;;17.86;100.00
55540;BME280;41384;51.418;7.286;2022-07-23T02:41:56;100060.41;;;17.93;100.00
55540;BME280;41384;51.418;7.286;2022-07-23T02:44:21;100059.09;;;17.96;98.75
55540;BME280;41384;51.418;7.286;2022-07-23T02:46:46;100050.38;;;17.78;100.00
55540;BME280;41384;51.418;7.286;2022-07-23T02:49:11;100057.44;;;17.67;100.00
55540;BME280;41384;51.418;7.286;2022-07-23T02:51:37;100057.06;;;17.80;100.00
55540;BME280;41384;51.418;7.286;2022-07-23T02:54:02;100062.06;;;16.98;100.00
55540;BME280;41384;51.418;7.286;2022-07-23T02:56:27;100060.41;;;16.80;100.00
55540;BME280;41384;51.418;7.286;2022-07-23T02:58:53;100065.25;;;17.17;100.00
55540;BME280;41384;51.418;7.286;2022-07-23T03:01:18;100075.13;;;16.83;100.00
55540;BME280;41384;51.418;7.286;2022-07-23T03:03:43;100075.78;;;16.90;100.00
55540;BME280;41384;51.418;7.286;2022-07-23T03:06:09;100076.00;;;16.88;100.00
55540;BME280;41384;51.418;7.286;2022-07-23T03:08:34;100077.94;;;16.93;100.00
55540;BME280;41384;51.418;7.286;2022-07-23T03:10:59;100076.06;;;16.93;100.00
55540;BME280;41384;51.418;7.286;2022-07-23T03:13:24;100068.75;;;17.01;100.00
55540;BME280;41384;51.418;7.286;2022-07-23T03:15:50;100071.84;;;17.27;100.00
55540;BME280;41384;51.418;7.286;2022-07-23T03:18:15;100060.88;;;17.45;100.00
55540;BME280;41384;51.418;7.286;2022-07-23T03:20:40;100053.72;;;17.90;100.00
55540;BME280;41384;51.418;7.286;2022-07-23T03:23:06;100049.97;;;17.69;100.00
55540;BME280;41384;51.418;7.286;2022-07-23T03:25:31;100058.63;;;17.37;100.00
55540;BME280;41384;51.418;7.286;2022-07-23T03:27:56;100058.47;;;17.66;100.00
55540;BME280;41384;51.418;7.286;2022-07-23T03:30:22;100059.66;;;17.75;100.00
55540;BME280;41384;51.418;7.286;2022-07-23T03:32:47;100070.22;;;17.65;100.00
55540;BME280;41384;51.418;7.286;2022-07-23T03:35:12;100054.13;;;17.60;100.00
55540;BME280;41384;51.418;7.286;2022-07-23T03:37:38;100046.03;;;17.32;100.00
55540;BME280;41384;51.418;7.286;2022-07-23T03:40:03;100049.94;;;17.47;100.00
55540;BME280;41384;51.418;7.286;2022-07-23T03:42:29;100045.53;;;17.35;100.00
55540;BME280;41384;51.418;7.286;2022-07-23T03:44:54;100054.38;;;17.19;100.00
55540;BME280;41384;51.418;7.286;2022-07-23T03:47:19;100057.59;;;17.04;100.00
55540;BME280;41384;51.418;7.286;2022-07-23T03:49:47;100059.28;;;17.10;100.00
55540;BME280;41384;51.418;7.286;2022-07-23T03:52:13;100062.84;;;16.99;100.00
55540;BME280;41384;51.418;7.286;2022-07-23T03:54:38;100062.25;;;16.97;100.00
55540;BME280;41384;51.418;7.286;2022-07-23T03:57:03;100065.44;;;17.28;100.00
55540;BME280;41384;51.418;7.286;2022-07-23T03:59:29;100061.53;;;17.18;100.00
55540;BME280;41384;51.418;7.286;2022-07-23T04:01:54;100062.84;;;17.33;100.00
55540;BME280;41384;51.418;7.286;2022-07-23T04:04:20;100067.19;;;17.39;100.00
55540;BME280;41384;51.418;7.286;2022-07-23T04:06:45;100068.00;;;17.40;100.00
55540;BME280;41384;51.418;7.286;2022-07-23T04:09:10;100068.09;;;17.67;100.00
55540;BME280;41384;51.418;7.286;2022-07-23T04:11:36;100072.69;;;17.49;100.00
55540;BME280;41384;51.418;7.286;2022-07-23T04:14:01;100079.72;;;17.39;100.00
55540;BME280;41384;51.418;7.286;2022-07-23T04:16:26;100073.16;;;17.46;100.00
55540;BME280;41384;51.418;7.286;2022-07-23T04:18:51;100069.38;;;17.42;100.00
55540;BME280;41384;51.418;7.286;2022-07-23T04:21:17;100071.75;;;17.61;100.00
55540;BME280;41384;51.418;7.286;2022-07-23T04:23:42;100082.22;;;17.45;100.00
55540;BME280;41384;51.418;7.286;2022-07-23T04:26:07;100070.91;;;17.77;100.00
55540;BME280;41384;51.418;7.286;2022-07-23T04:28:32;100065.72;;;18.10;100.00
55540;BME280;41384;51.418;7.286;2022-07-23T04:30:58;100069.66;;;18.07;100.00
55540;BME280;41384;51.418;7.286;2022-07-23T04:33:24;100069.81;;;18.18;100.00
55540;BME280;41384;51.418;7.286;2022-07-23T04:35:49;100063.41;;;18.19;100.00
55540;BME280;41384;51.418;7.286;2022-07-23T04:38:14;100073.38;;;17.62;100.00
55540;BME280;41384;51.418;7.286;2022-07-23T04:40:39;100080.69;;;17.49;100.00
55540;BME280;41384;51.418;7.286;2022-07-23T04:43:05;100085.13;;;17.44;100.00
55540;BME280;41384;51.418;7.286;2022-07-23T04:45:30;100094.94;;;17.04;100.00
55540;BME280;41384;51.418;7.286;2022-07-23T04:47:55;100090.31;;;17.16;100.00
55540;BME280;41384;51.418;7.286;2022-07-23T04:50:22;100097.59;;;17.04;100.00
55540;BME280;41384;51.418;7.286;2022-07-23T04:52:48;100093.97;;;17.27;100.00
55540;BME280;41384;51.418;7.286;2022-07-23T04:55:14;100103.50;;;17.40;100.00
55540;BME280;41384;51.418;7.286;2022-07-23T04:57:39;100102.53;;;17.12;100.00
55540;BME280;41384;51.418;7.286;2022-07-23T05:00:06;100106.59;;;17.32;100.00
55540;BME280;41384;51.418;7.286;2022-07-23T05:02:31;100113.50;;;16.99;100.00
55540;BME280;41384;51.418;7.286;2022-07-23T05:04:56;100109.56;;;17.18;100.00
55540;BME280;41384;51.418;7.286;2022-07-23T05:07:22;100110.84;;;17.50;100.00
55540;BME280;41384;51.418;7.286;2022-07-23T05:09:47;100108.34;;;17.26;100.00
55540;BME280;41384;51.418;7.286;2022-07-23T05:12:12;100121.00;;;17.53;100.00
55540;BME280;41384;51.418;7.286;2022-07-23T05:14:38;100120.19;;;17.70;100.00
55540;BME280;41384;51.418;7.286;2022-07-23T05:17:03;100128.53;;;17.96;100.00
55540;BME280;41384;51.418;7.286;2022-07-23T05:19:28;100114.63;;;17.93;100.00
55540;BME280;41384;51.418;7.286;2022-07-23T05:21:54;100117.34;;;17.76;100.00
55540;BME280;41384;51.418;7.286;2022-07-23T05:24:19;100121.13;;;17.80;100.00
55540;BME280;41384;51.418;7.286;2022-07-23T05:26:44;100117.16;;;17.83;100.00
55540;BME280;41384;51.418;7.286;2022-07-23T05:29:10;100121.81;;;17.93;100.00
55540;BME280;41384;51.418;7.286;2022-07-23T05:31:35;100129.88;;;17.98;100.00
55540;BME280;41384;51.418;7.286;2022-07-23T05:34:00;100132.84;;;17.79;100.00
55540;BME280;41384;51.418;7.286;2022-07-23T05:36:25;100134.94;;;17.94;100.00
55540;BME280;41384;51.418;7.286;2022-07-23T05:38:51;100136.38;;;18.02;100.00
55540;BME280;41384;51.418;7.286;2022-07-23T05:41:16;100135.84;;;17.83;100.00
55540;BME280;41384;51.418;7.286;2022-07-23T05:43:41;100139.13;;;18.07;100.00
55540;BME280;41384;51.418;7.286;2022-07-23T05:46:07;100142.16;;;18.16;100.00
55540;BME280;41384;51.418;7.286;2022-07-23T05:48:32;100144.78;;;18.33;100.00
55540;BME280;41384;51.418;7.286;2022-07-23T05:50:57;100151.97;;;18.11;98.86
55540;BME280;41384;51.418;7.286;2022-07-23T05:53:22;100149.09;;;17.56;100.00
55540;BME280;41384;51.418;7.286;2022-07-23T05:55:48;100150.00;;;18.23;100.00
55540;BME280;41384;51.418;7.286;2022-07-23T05:58:13;100151.56;;;18.19;100.00
55540;BME280;41384;51.418;7.286;2022-07-23T06:00:38;100156.72;;;18.26;100.00
55540;BME280;41384;51.418;7.286;2022-07-23T06:03:04;100150.94;;;18.12;100.00
55540;BME280;41384;51.418;7.286;2022-07-23T06:05:29;100138.94;;;18.36;100.00
55540;BME280;41384;51.418;7.286;2022-07-23T06:07:54;100142.56;;;18.80;97.75
55540;BME280;41384;51.418;7.286;2022-07-23T06:10:20;100152.78;;;18.83;97.29
55540;BME280;41384;51.418;7.286;2022-07-23T06:12:45;100144.97;;;18.76;93.37
55540;BME280;41384;51.418;7.286;2022-07-23T06:15:11;100149.66;;;18.64;98.04
55540;BME280;41384;51.418;7.286;2022-07-23T06:17:37;100150.00;;;18.73;97.08
55540;BME280;41384;51.418;7.286;2022-07-23T06:20:05;100155.34;;;18.73;93.73
55540;BME280;41384;51.418;7.286;2022-07-23T06:22:31;100150.03;;;18.78;95.28
55540;BME280;41384;51.418;7.286;2022-07-23T06:24:56;100155.81;;;18.92;93.99
55540;BME280;41384;51.418;7.286;2022-07-23T06:27:21;100162.78;;;18.93;94.86
55540;BME280;41384;51.418;7.286;2022-07-23T06:29:47;100163.00;;;18.91;93.50
55540;BME280;41384;51.418;7.286;2022-07-23T06:32:12;100169.22;;;18.70;94.24
55540;BME280;41384;51.418;7.286;2022-07-23T06:34:38;100159.53;;;19.18;93.16
55540;BME280;41384;51.418;7.286;2022-07-23T06:37:03;100172.25;;;19.38;89.57
55540;BME280;41384;51.418;7.286;2022-07-23T06:39:28;100172.66;;;19.58;88.98
55540;BME280;41384;51.418;7.286;2022-07-23T06:41:53;100168.81;;;19.43;89.74
55540;BME280;41384;51.418;7.286;2022-07-23T06:44:19;100169.78;;;19.27;90.52
55540;BME280;41384;51.418;7.286;2022-07-23T06:46:44;100171.75;;;19.42;89.82
55540;BME280;41384;51.418;7.286;2022-07-23T06:49:09;100171.72;;;19.79;88.42
55540;BME280;41384;51.418;7.286;2022-07-23T06:51:35;100174.06;;;20.03;84.47
55540;BME280;41384;51.418;7.286;2022-07-23T06:54:01;100176.78;;;20.14;85.19
55540;BME280;41384;51.418;7.286;2022-07-23T06:56:26;100176.78;;;20.19;85.00
55540;BME280;41384;51.418;7.286;2022-07-23T06:58:51;100178.75;;;20.34;83.46
55540;BME280;41384;51.418;7.286;2022-07-23T07:01:16;100180.38;;;20.45;84.74
55540;BME280;41384;51.418;7.286;2022-07-23T07:03:42;100181.72;;;20.53;80.44
55540;BME280;41384;51.418;7.286;2022-07-23T07:06:07;100187.97;;;20.74;80.27
55540;BME280;41384;51.418;7.286;2022-07-23T07:08:33;100179.97;;;20.84;80.24
55540;BME280;41384;51.418;7.286;2022-07-23T07:10:58;100186.69;;;20.92;80.61
55540;BME280;41384;51.418;7.286;2022-07-23T07:13:23;100185.38;;;21.21;78.39
55540;BME280;41384;51.418;7.286;2022-07-23T07:15:49;100186.69;;;21.23;78.10
55540;BME280;41384;51.418;7.286;2022-07-23T07:18:14;100193.31;;;20.74;78.12
55540;BME280;41384;51.418;7.286;2022-07-23T07:20:39;100194.19;;;20.80;78.30
55540;BME280;41384;51.418;7.286;2022-07-23T07:23:04;100191.75;;;20.83;80.72
55540;BME280;41384;51.418;7.286;2022-07-23T07:25:30;100195.25;;;20.79;78.26
55540;BME280;41384;51.418;7.286;2022-07-23T07:27:55;100194.97;;;20.85;79.91
55540;BME280;41384;51.418;7.286;2022-07-23T07:30:20;100192.22;;;20.65;79.19
55540;BME280;41384;51.418;7.286;2022-07-23T07:32:46;100193.91;;;20.92;76.51
55540;BME280;41384;51.418;7.286;2022-07-23T07:35:11;100195.97;;;20.59;79.55
55540;BME280;41384;51.418;7.286;2022-07-23T07:37:37;100196.88;;;20.90;80.12
55540;BME280;41384;51.418;7.286;2022-07-23T07:40:02;100195.81;;;21.17;76.44
55540;BME280;41384;51.418;7.286;2022-07-23T07:42:28;100202.25;;;20.85;78.97
55540;BME280;41384;51.418;7.286;2022-07-23T07:44:53;100208.44;;;21.17;78.40
55540;BME280;41384;51.418;7.286;2022-07-23T07:47:18;100205.88;;;20.58;78.36
55540;BME280;41384;51.418;7.286;2022-07-23T07:49:43;100207.41;;;20.38;82.16
55540;BME280;41384;51.418;7.286;2022-07-23T07:52:09;100211.06;;;20.85;80.70
55540;BME280;41384;51.418;7.286;2022-07-23T07:54:35;100215.56;;;20.69;82.13
55540;BME280;41384;51.418;7.286;2022-07-23T07:57:01;100218.94;;;20.34;78.98
55540;BME280;41384;51.418;7.286;2022-07-23T07:59:26;100217.38;;;20.43;79.00
55540;BME280;41384;51.418;7.286;2022-07-23T08:01:51;100213.22;;;20.94;79.26
55540;BME280;41384;51.418;7.286;2022-07-23T08:04:17;100219.13;;;20.85;77.13
55540;BME280;41384;51.418;7.286;2022-07-23T08:06:42;100220.94;;;20.69;77.77
55540;BME280;41384;51.418;7.286;2022-07-23T08:09:07;100219.97;;;20.91;81.14
55540;BME280;41384;51.418;7.286;2022-07-23T08:11:33;100216.75;;;21.41;77.97
55540;BME280;41384;51.418;7.286;2022-07-23T08:13:58;100225.09;;;21.81;74.59
55540;BME280;41384;51.418;7.286;2022-07-23T08:16:23;100216.72;;;22.03;73.04
55540;BME280;41384;51.418;7.286;2022-07-23T08:18:49;100232.47;;;20.65;78.13
55540;BME280;41384;51.418;7.286;2022-07-23T08:21:14;100235.53;;;21.05;76.75
55540;BME280;41384;51.418;7.286;2022-07-23T08:23:39;100231.25;;;21.24;77.87
55540;BME280;41384;51.418;7.286;2022-07-23T08:26:04;100234.53;;;21.68;77.58
55540;BME280;41384;51.418;7.286;2022-07-23T08:28:30;100237.66;;;20.82;78.22
55540;BME280;41384;51.418;7.286;2022-07-23T08:30:58;100238.75;;;21.02;78.11
55540;BME280;41384;51.418;7.286;2022-07-23T08:33:24;100234.47;;;21.16;75.85
55540;BME280;41384;51.418;7.286;2022-07-23T08:35:50;100239.84;;;21.63;74.46
55540;BME280;41384;51.418;7.286;2022-07-23T08:38:20;100236.63;;;21.14;74.74
55540;BME280;41384;51.418;7.286;2022-07-23T08:40:51;100239.53;;;20.87;74.31
55540;BME280;41384;51.418;7.286;2022-07-23T08:43:22;100250.19;;;20.71;74.54
55540;BME280;41384;51.418;7.286;2022-07-23T08:45:50;100247.84;;;20.90;75.60
55540;BME280;41384;51.418;7.286;2022-07-23T08:48:18;100251.91;;;21.13;74.34
55540;BME280;41384;51.418;7.286;2022-07-23T08:50:50;100246.84;;;21.33;73.00
55540;BME280;41384;51.418;7.286;2022-07-23T08:53:16;100250.94;;;20.66;71.56
55540;BME280;41384;51.418;7.286;2022-07-23T08:55:50;100240.63;;;21.06;74.24
55540;BME280;41384;51.418;7.286;2022-07-23T08:58:17;100239.31;;;21.14;69.27
55540;BME280;41384;51.418;7.286;2022-07-23T09:00:43;100250.56;;;21.01;69.23
55540;BME280;41384;51.418;7.286;2022-07-23T09:03:18;100249.53;;;21.84;69.48
55540;BME280;41384;51.418;7.286;2022-07-23T09:05:44;100256.28;;;21.66;67.66
55540;BME280;41384;51.418;7.286;2022-07-23T09:08:18;100256.50;;;21.96;65.45
55540;BME280;41384;51.418;7.286;2022-07-23T09:10:50;100260.28;;;21.90;66.10
55540;BME280;41384;51.418;7.286;2022-07-23T09:13:27;100252.44;;;22.04;64.15
55540;BME280;41384;51.418;7.286;2022-07-23T09:15:55;100258.13;;;21.97;63.70
55540;BME280;41384;51.418;7.286;2022-07-23T09:18:31;100256.13;;;22.39;60.69
55540;BME280;41384;51.418;7.286;2022-07-23T09:21:27;100253.66;;;22.42;61.50
55540;BME280;41384;51.418;7.286;2022-07-23T09:23:59;100249.41;;;22.36;60.34
55540;BME280;41384;51.418;7.286;2022-07-23T09:29:03;100254.78;;;22.36;60.84
55540;BME280;41384;51.418;7.286;2022-07-23T09:31:43;100260.31;;;22.71;62.89
55540;BME280;41384;51.418;7.286;2022-07-23T09:34:11;100257.50;;;23.37;58.29
55540;BME280;41384;51.418;7.286;2022-07-23T09:36:37;100255.59;;;23.42;57.31
55540;BME280;41384;51.418;7.286;2022-07-23T09:39:03;100262.00;;;22.56;61.52
55540;BME280;41384;51.418;7.286;2022-07-23T09:41:43;100260.63;;;22.64;60.56
55540;BME280;41384;51.418;7.286;2022-07-23T09:44:11;100257.03;;;22.79;57.52
55540;BME280;41384;51.418;7.286;2022-07-23T09:46:37;100259.63;;;23.45;56.98
55540;BME280;41384;51.418;7.286;2022-07-23T09:49:21;100259.13;;;22.22;57.63
55540;BME280;41384;51.418;7.286;2022-07-23T09:51:48;100253.88;;;23.12;59.55
55540;BME280;41384;51.418;7.286;2022-07-23T09:56:48;100257.69;;;24.10;54.54
55540;BME280;41384;51.418;7.286;2022-07-23T09:59:15;100250.50;;;24.24;54.66
55540;BME280;41384;51.418;7.286;2022-07-23T10:01:44;100249.41;;;24.50;53.35
55540;BME280;41384;51.418;7.286;2022-07-23T10:04:11;100248.53;;;24.54;54.05
55540;BME280;41384;51.418;7.286;2022-07-23T10:06:38;100248.03;;;24.71;52.43
55540;BME280;41384;51.418;7.286;2022-07-23T10:09:04;100250.56;;;24.62;52.49
55540;BME280;41384;51.418;7.286;2022-07-23T10:11:31;100251.22;;;24.79;52.82
55540;BME280;41384;51.418;7.286;2022-07-23T10:13:58;100259.19;;;23.92;57.15
55540;BME280;41384;51.418;7.286;2022-07-23T10:16:26;100254.81;;;24.50;53.66
55540;BME280;41384;51.418;7.286;2022-07-23T10:18:51;100255.59;;;24.74;52.67
55540;BME280;41384;51.418;7.286;2022-07-23T10:21:25;100264.91;;;24.39;53.21
55540;BME280;41384;51.418;7.286;2022-07-23T10:24:16;100255.19;;;24.62;51.50
55540;BME280;41384;51.418;7.286;2022-07-23T10:29:57;100253.34;;;25.01;51.67
55540;BME280;41384;51.418;7.286;2022-07-23T10:32:37;100252.94;;;25.46;51.10
55540;BME280;41384;51.418;7.286;2022-07-23T10:38:18;100258.41;;;25.41;51.66
55540;BME280;41384;51.418;7.286;2022-07-23T10:41:02;100259.84;;;25.33;51.24
55540;BME280;41384;51.418;7.286;2022-07-23T10:43:28;100251.66;;;25.38;49.46
55540;BME280;41384;51.418;7.286;2022-07-23T10:45:56;100253.25;;;25.25;50.09
55540;BME280;41384;51.418;7.286;2022-07-23T10:48:41;100249.97;;;25.61;48.14
55540;BME280;41384;51.418;7.286;2022-07-23T10:51:11;100250.47;;;25.44;46.36
55540;BME280;41384;51.418;7.286;2022-07-23T10:53:55;100255.88;;;24.92;47.89
55540;BME280;41384;51.418;7.286;2022-07-23T10:59:14;100245.69;;;25.41;47.79
55540;BME280;41384;51.418;7.286;2022-07-23T11:01:40;100246.63;;;24.79;47.60
55540;BME280;41384;51.418;7.286;2022-07-23T11:04:06;100248.91;;;24.23;48.58
55540;BME280;41384;51.418;7.286;2022-07-23T11:07:06;100247.72;;;25.49;48.81
55540;BME280;41384;51.418;7.286;2022-07-23T11:15:09;100246.56;;;25.37;46.69
55540;BME280;41384;51.418;7.286;2022-07-23T11:17:37;100238.44;;;25.56;46.05
55540;BME280;41384;51.418;7.286;2022-07-23T11:25:09;100240.38;;;26.67;43.83
55540;BME280;41384;51.418;7.286;2022-07-23T11:30:03;100252.22;;;25.21;46.23
55540;BME280;41384;51.418;7.286;2022-07-23T11:32:34;100243.84;;;25.56;46.21
55540;BME280;41384;51.418;7.286;2022-07-23T11:35:01;100237.34;;;25.57;45.88
55540;BME280;41384;51.418;7.286;2022-07-23T11:37:38;100245.34;;;25.10;46.59
55540;BME280;41384;51.418;7.286;2022-07-23T11:40:09;100239.81;;;25.20;45.56
55540;BME280;41384;51.418;7.286;2022-07-23T11:42:37;100238.25;;;25.52;46.00
55540;BME280;41384;51.418;7.286;2022-07-23T11:45:04;100242.28;;;25.69;45.35
55540;BME280;41384;51.418;7.286;2022-07-23T11:47:29;100242.28;;;25.35;45.00
55540;BME280;41384;51.418;7.286;2022-07-23T11:49:57;100242.63;;;26.09;43.43
55540;BME280;41384;51.418;7.286;2022-07-23T11:52:23;100237.88;;;27.07;42.46
55540;BME280;41384;51.418;7.286;2022-07-23T11:55:00;100236.41;;;26.36;41.56
55540;BME280;41384;51.418;7.286;2022-07-23T11:57:29;100228.50;;;26.91;42.09
55540;BME280;41384;51.418;7.286;2022-07-23T11:59:58;100239.81;;;26.28;44.26
55540;BME280;41384;51.418;7.286;2022-07-23T12:02:24;100242.22;;;26.94;42.39
55540;BME280;41384;51.418;7.286;2022-07-23T12:04:51;100241.94;;;27.42;42.29
55540;BME280;41384;51.418;7.286;2022-07-23T12:07:27;100239.16;;;27.87;40.75
55540;BME280;41384;51.418;7.286;2022-07-23T12:09:53;100244.69;;;27.82;38.75
55540;BME280;41384;51.418;7.286;2022-07-23T12:12:19;100242.09;;;27.68;39.61
55540;BME280;41384;51.418;7.286;2022-07-23T12:14:52;100240.03;;;27.19;40.44
55540;BME280;41384;51.418;7.286;2022-07-23T12:17:19;100242.09;;;28.00;39.72
55540;BME280;41384;51.418;7.286;2022-07-23T12:19:46;100241.59;;;28.06;39.27
55540;BME280;41384;51.418;7.286;2022-07-23T12:22:12;100238.91;;;28.73;38.38
55540;BME280;41384;51.418;7.286;2022-07-23T12:24:59;100235.25;;;28.78;38.24
55540;BME280;41384;51.418;7.286;2022-07-23T12:27:26;100229.66;;;29.09;36.71
55540;BME280;41384;51.418;7.286;2022-07-23T12:29:51;100228.31;;;27.87;39.72
55540;BME280;41384;51.418;7.286;2022-07-23T12:32:23;100237.19;;;28.77;37.52
55540;BME280;41384;51.418;7.286;2022-07-23T12:35:08;100233.91;;;29.46;36.44
55540;BME280;41384;51.418;7.286;2022-07-23T12:37:42;100230.06;;;29.47;35.45
55540;BME280;41384;51.418;7.286;2022-07-23T12:40:35;100237.00;;;28.07;37.21
55540;BME280;41384;51.418;7.286;2022-07-23T12:43:06;100237.38;;;28.23;37.87
55540;BME280;41384;51.418;7.286;2022-07-23T12:45:43;100239.97;;;27.33;38.30
55540;BME280;41384;51.418;7.286;2022-07-23T12:48:16;100238.13;;;27.20;39.30
55540;BME280;41384;51.418;7.286;2022-07-23T12:53:16;100234.91;;;28.53;37.42
55540;BME280;41384;51.418;7.286;2022-07-23T12:55:44;100240.16;;;27.60;37.50
55540;BME280;41384;51.418;7.286;2022-07-23T12:58:14;100238.41;;;28.71;37.19
55540;BME280;41384;51.418;7.286;2022-07-23T13:01:02;100241.69;;;27.84;37.92
55540;BME280;41384;51.418;7.286;2022-07-23T13:03:30;100242.13;;;27.45;37.42
55540;BME280;41384;51.418;7.286;2022-07-23T13:05:57;100248.75;;;27.93;36.83
55540;BME280;41384;51.418;7.286;2022-07-23T13:08:24;100244.13;;;27.62;39.40
55540;BME280;41384;51.418;7.286;2022-07-23T13:10:49;100249.41;;;28.48;37.65
55540;BME280;41384;51.418;7.286;2022-07-23T13:13:19;100251.00;;;28.49;36.42
55540;BME280;41384;51.418;7.286;2022-07-23T13:15:44;100247.50;;;28.58;36.34